Terminal Aerodrome Forecast
Issued by NWS Cleveland, OH

Home | Current Version | Previous Version | Text Only | Print | Product List | Glossary Off
Versions: 1 2 3 4 5 6 7 8 9 10 11 12 13 14 15 16 17 18 19 20 21 22 23

000
FTUS41 KCLE 031700
TAFMFD
TAF
KMFD 031730Z 0318/0418 24011KT P6SM SCT060
      TEMPO 0318/0322 BKN060
     FM032300 18009KT P6SM SCT250
     FM040900 18008KT P6SM SCT100 BKN250
     FM041400 21014G20KT P6SM SCT045 BKN120=

USA.gov is the U.S. government's official web portal to all federal, state and local government web resources and services.